sensor_id;sensor_type;location;lat;lon;timestamp;temperature;humidity
41876;DHT22;27555;50.808;4.402;2023-07-13T00:01:04;18.80;96.90
41876;DHT22;27555;50.808;4.402;2023-07-13T00:03:30;18.70;97.10
41876;DHT22;27555;50.808;4.402;2023-07-13T00:06:01;18.70;97.20
41876;DHT22;27555;50.808;4.402;2023-07-13T00:08:30;18.70;97.40
41876;DHT22;27555;50.808;4.402;2023-07-13T00:10:58;18.70;97.60
41876;DHT22;27555;50.808;4.402;2023-07-13T00:13:23;18.50;97.90
41876;DHT22;27555;50.808;4.402;2023-07-13T00:15:49;18.60;97.90
41876;DHT22;27555;50.808;4.402;2023-07-13T00:18:15;18.50;98.10
41876;DHT22;27555;50.808;4.402;2023-07-13T00:20:40;18.60;98.20
41876;DHT22;27555;50.808;4.402;2023-07-13T00:23:07;18.60;98.30
41876;DHT22;27555;50.808;4.402;2023-07-13T00:25:32;18.50;98.50
41876;DHT22;27555;50.808;4.402;2023-07-13T00:27:58;18.50;98.60
41876;DHT22;27555;50.808;4.402;2023-07-13T00:30:23;18.40;98.90
41876;DHT22;27555;50.808;4.402;2023-07-13T00:32:49;18.40;99.10
41876;DHT22;27555;50.808;4.402;2023-07-13T00:35:15;18.40;99.10
41876;DHT22;27555;50.808;4.402;2023-07-13T00:37:41;18.30;99.40
41876;DHT22;27555;50.808;4.402;2023-07-13T00:40:09;18.40;99.30
41876;DHT22;27555;50.808;4.402;2023-07-13T00:42:35;18.20;99.90
41876;DHT22;27555;50.808;4.402;2023-07-13T00:47:40;18.00;99.90
41876;DHT22;27555;50.808;4.402;2023-07-13T00:50:08;17.90;99.90
41876;DHT22;27555;50.808;4.402;2023-07-13T00:52:37;18.00;99.90
41876;DHT22;27555;50.808;4.402;2023-07-13T00:55:03;17.90;99.90
41876;DHT22;27555;50.808;4.402;2023-07-13T00:57:29;17.90;99.90
41876;DHT22;27555;50.808;4.402;2023-07-13T00:59:58;17.90;99.90
41876;DHT22;27555;50.808;4.402;2023-07-13T01:02:26;18.00;99.90
41876;DHT22;27555;50.808;4.402;2023-07-13T01:04:51;18.00;99.90
41876;DHT22;27555;50.808;4.402;2023-07-13T01:07:18;18.10;99.90
41876;DHT22;27555;50.808;4.402;2023-07-13T01:09:44;17.90;99.90
41876;DHT22;27555;50.808;4.402;2023-07-13T01:12:10;17.90;99.90
41876;DHT22;27555;50.808;4.402;2023-07-13T01:14:36;17.70;99.90
41876;DHT22;27555;50.808;4.402;2023-07-13T01:17:03;17.70;99.90
41876;DHT22;27555;50.808;4.402;2023-07-13T01:19:40;17.80;99.90
41876;DHT22;27555;50.808;4.402;2023-07-13T01:22:18;17.90;99.90
41876;DHT22;27555;50.808;4.402;2023-07-13T01:24:46;17.90;99.90
41876;DHT22;27555;50.808;4.402;2023-07-13T01:27:15;17.90;99.90
41876;DHT22;27555;50.808;4.402;2023-07-13T01:29:42;17.80;99.90
41876;DHT22;27555;50.808;4.402;2023-07-13T01:32:14;17.90;99.90
41876;DHT22;27555;50.808;4.402;2023-07-13T01:34:40;17.70;99.90
41876;DHT22;27555;50.808;4.402;2023-07-13T01:37:11;17.80;99.90
41876;DHT22;27555;50.808;4.402;2023-07-13T01:39:37;17.80;99.90
41876;DHT22;27555;50.808;4.402;2023-07-13T01:42:03;17.80;99.90
41876;DHT22;27555;50.808;4.402;2023-07-13T01:44:29;17.80;99.90
41876;DHT22;27555;50.808;4.402;2023-07-13T01:46:54;17.60;99.90
41876;DHT22;27555;50.808;4.402;2023-07-13T01:49:20;17.70;99.90
41876;DHT22;27555;50.808;4.402;2023-07-13T01:51:46;17.70;99.90
41876;DHT22;27555;50.808;4.402;2023-07-13T01:54:12;17.80;99.90
41876;DHT22;27555;50.808;4.402;2023-07-13T01:56:37;17.70;99.90
41876;DHT22;27555;50.808;4.402;2023-07-13T01:59:03;17.90;99.90
41876;DHT22;27555;50.808;4.402;2023-07-13T02:01:28;17.80;99.90
41876;DHT22;27555;50.808;4.402;2023-07-13T02:03:54;17.80;99.90
41876;DHT22;27555;50.808;4.402;2023-07-13T02:06:19;17.60;99.90
41876;DHT22;27555;50.808;4.402;2023-07-13T02:08:45;17.50;99.90
41876;DHT22;27555;50.808;4.402;2023-07-13T02:11:11;17.60;99.90
41876;DHT22;27555;50.808;4.402;2023-07-13T02:13:37;17.60;99.90
41876;DHT22;27555;50.808;4.402;2023-07-13T02:16:02;17.60;99.90
41876;DHT22;27555;50.808;4.402;2023-07-13T02:18:28;17.70;99.90
41876;DHT22;27555;50.808;4.402;2023-07-13T02:20:53;17.70;99.90
41876;DHT22;27555;50.808;4.402;2023-07-13T02:23:19;17.60;99.90
41876;DHT22;27555;50.808;4.402;2023-07-13T02:25:45;17.60;99.90
41876;DHT22;27555;50.808;4.402;2023-07-13T02:28:11;17.50;99.90
41876;DHT22;27555;50.808;4.402;2023-07-13T02:30:36;17.30;99.90
41876;DHT22;27555;50.808;4.402;2023-07-13T02:33:03;17.40;99.90
41876;DHT22;27555;50.808;4.402;2023-07-13T02:35:29;17.50;99.90
41876;DHT22;27555;50.808;4.402;2023-07-13T02:37:55;17.40;99.90
41876;DHT22;27555;50.808;4.402;2023-07-13T02:40:20;17.30;99.90
41876;DHT22;27555;50.808;4.402;2023-07-13T02:42:46;17.40;99.90
41876;DHT22;27555;50.808;4.402;2023-07-13T02:45:11;17.40;99.90
41876;DHT22;27555;50.808;4.402;2023-07-13T02:47:40;17.30;99.90
41876;DHT22;27555;50.808;4.402;2023-07-13T02:50:06;17.50;99.90
41876;DHT22;27555;50.808;4.402;2023-07-13T02:52:32;17.30;99.90
41876;DHT22;27555;50.808;4.402;2023-07-13T02:54:58;17.40;99.90
41876;DHT22;27555;50.808;4.402;2023-07-13T02:57:23;17.30;99.90
41876;DHT22;27555;50.808;4.402;2023-07-13T02:59:49;17.10;99.90
41876;DHT22;27555;50.808;4.402;2023-07-13T03:02:15;17.20;99.90
41876;DHT22;27555;50.808;4.402;2023-07-13T03:04:41;17.30;99.90
41876;DHT22;27555;50.808;4.402;2023-07-13T03:07:07;17.20;99.90
41876;DHT22;27555;50.808;4.402;2023-07-13T03:09:34;17.10;99.90
41876;DHT22;27555;50.808;4.402;2023-07-13T03:12:00;17.10;99.90
41876;DHT22;27555;50.808;4.402;2023-07-13T03:14:26;17.10;99.90
41876;DHT22;27555;50.808;4.402;2023-07-13T03:16:52;17.20;99.90
41876;DHT22;27555;50.808;4.402;2023-07-13T03:19:18;17.20;99.90
41876;DHT22;27555;50.808;4.402;2023-07-13T03:21:44;17.20;99.90
41876;DHT22;27555;50.808;4.402;2023-07-13T03:24:10;17.00;99.90
41876;DHT22;27555;50.808;4.402;2023-07-13T03:26:36;17.00;99.90
41876;DHT22;27555;50.808;4.402;2023-07-13T03:29:02;17.00;99.90
41876;DHT22;27555;50.808;4.402;2023-07-13T03:31:29;17.00;99.90
41876;DHT22;27555;50.808;4.402;2023-07-13T03:33:55;17.10;99.90
41876;DHT22;27555;50.808;4.402;2023-07-13T03:36:24;17.20;99.90
41876;DHT22;27555;50.808;4.402;2023-07-13T03:38:53;17.20;99.90
41876;DHT22;27555;50.808;4.402;2023-07-13T03:41:19;17.10;99.90
41876;DHT22;27555;50.808;4.402;2023-07-13T03:43:45;17.20;99.90
41876;DHT22;27555;50.808;4.402;2023-07-13T03:46:10;17.00;99.90
41876;DHT22;27555;50.808;4.402;2023-07-13T03:48:36;17.10;99.90
41876;DHT22;27555;50.808;4.402;2023-07-13T03:51:02;17.10;99.90
41876;DHT22;27555;50.808;4.402;2023-07-13T03:53:28;17.30;99.90
41876;DHT22;27555;50.808;4.402;2023-07-13T03:55:53;17.30;99.90
41876;DHT22;27555;50.808;4.402;2023-07-13T03:58:33;17.20;99.90
41876;DHT22;27555;50.808;4.402;2023-07-13T04:01:01;17.20;99.90
41876;DHT22;27555;50.808;4.402;2023-07-13T04:03:28;17.40;99.90
41876;DHT22;27555;50.808;4.402;2023-07-13T04:05:55;17.50;99.90
41876;DHT22;27555;50.808;4.402;2023-07-13T04:08:25;17.40;99.90
41876;DHT22;27555;50.808;4.402;2023-07-13T04:10:51;17.50;99.90
41876;DHT22;27555;50.808;4.402;2023-07-13T04:13:16;17.60;99.90
41876;DHT22;27555;50.808;4.402;2023-07-13T04:15:42;17.70;99.90
41876;DHT22;27555;50.808;4.402;2023-07-13T04:18:08;17.70;99.90
41876;DHT22;27555;50.808;4.402;2023-07-13T04:20:34;17.90;99.90
41876;DHT22;27555;50.808;4.402;2023-07-13T04:23:00;17.80;99.90
41876;DHT22;27555;50.808;4.402;2023-07-13T04:25:26;17.70;99.90
41876;DHT22;27555;50.808;4.402;2023-07-13T04:27:53;18.00;99.90
41876;DHT22;27555;50.808;4.402;2023-07-13T04:30:19;17.90;99.90
41876;DHT22;27555;50.808;4.402;2023-07-13T04:32:46;17.70;99.90
41876;DHT22;27555;50.808;4.402;2023-07-13T04:35:11;17.90;99.90
41876;DHT22;27555;50.808;4.402;2023-07-13T04:37:37;17.70;99.90
41876;DHT22;27555;50.808;4.402;2023-07-13T04:40:03;17.80;99.90
41876;DHT22;27555;50.808;4.402;2023-07-13T04:42:29;17.60;99.90
41876;DHT22;27555;50.808;4.402;2023-07-13T04:44:55;17.80;99.90
41876;DHT22;27555;50.808;4.402;2023-07-13T04:47:21;18.00;99.90
41876;DHT22;27555;50.808;4.402;2023-07-13T04:49:47;18.00;99.90
41876;DHT22;27555;50.808;4.402;2023-07-13T04:52:12;17.80;99.90
41876;DHT22;27555;50.808;4.402;2023-07-13T04:54:38;17.80;99.90
41876;DHT22;27555;50.808;4.402;2023-07-13T04:57:05;17.70;99.90
41876;DHT22;27555;50.808;4.402;2023-07-13T04:59:34;18.00;99.90
41876;DHT22;27555;50.808;4.402;2023-07-13T05:01:59;18.20;99.90
41876;DHT22;27555;50.808;4.402;2023-07-13T05:04:26;18.10;99.90
41876;DHT22;27555;50.808;4.402;2023-07-13T05:06:52;18.10;99.90
41876;DHT22;27555;50.808;4.402;2023-07-13T05:09:17;18.10;99.90
41876;DHT22;27555;50.808;4.402;2023-07-13T05:11:43;18.20;99.90
41876;DHT22;27555;50.808;4.402;2023-07-13T05:14:09;18.10;99.90
41876;DHT22;27555;50.808;4.402;2023-07-13T05:16:37;18.10;99.90
41876;DHT22;27555;50.808;4.402;2023-07-13T05:19:03;18.00;99.90
41876;DHT22;27555;50.808;4.402;2023-07-13T05:21:28;18.10;99.90
41876;DHT22;27555;50.808;4.402;2023-07-13T05:23:54;18.00;99.90
41876;DHT22;27555;50.808;4.402;2023-07-13T05:26:20;18.10;99.90
41876;DHT22;27555;50.808;4.402;2023-07-13T05:28:46;18.40;99.90
41876;DHT22;27555;50.808;4.402;2023-07-13T05:31:12;18.30;99.90
41876;DHT22;27555;50.808;4.402;2023-07-13T05:33:39;18.10;99.90
41876;DHT22;27555;50.808;4.402;2023-07-13T05:36:05;18.20;99.90
41876;DHT22;27555;50.808;4.402;2023-07-13T05:38:30;18.50;99.90
41876;DHT22;27555;50.808;4.402;2023-07-13T05:40:57;18.50;99.90
41876;DHT22;27555;50.808;4.402;2023-07-13T05:43:23;18.50;99.90
41876;DHT22;27555;50.808;4.402;2023-07-13T05:45:48;18.40;99.90
41876;DHT22;27555;50.808;4.402;2023-07-13T05:48:15;18.70;99.90
41876;DHT22;27555;50.808;4.402;2023-07-13T05:50:41;18.60;99.90
41876;DHT22;27555;50.808;4.402;2023-07-13T05:53:06;18.60;99.90
41876;DHT22;27555;50.808;4.402;2023-07-13T05:55:32;18.60;99.90
41876;DHT22;27555;50.808;4.402;2023-07-13T05:57:59;18.60;99.90
41876;DHT22;27555;50.808;4.402;2023-07-13T06:00:26;18.80;99.90
41876;DHT22;27555;50.808;4.402;2023-07-13T06:02:51;18.80;99.90
41876;DHT22;27555;50.808;4.402;2023-07-13T06:05:17;18.70;99.90
41876;DHT22;27555;50.808;4.402;2023-07-13T06:07:43;18.60;99.90
41876;DHT22;27555;50.808;4.402;2023-07-13T06:10:09;18.50;99.90
41876;DHT22;27555;50.808;4.402;2023-07-13T06:12:35;18.70;99.90
41876;DHT22;27555;50.808;4.402;2023-07-13T06:15:01;18.50;99.90
41876;DHT22;27555;50.808;4.402;2023-07-13T06:17:26;18.40;99.90
41876;DHT22;27555;50.808;4.402;2023-07-13T06:19:52;18.50;99.90
41876;DHT22;27555;50.808;4.402;2023-07-13T06:22:17;18.70;99.90
41876;DHT22;27555;50.808;4.402;2023-07-13T06:24:43;19.10;99.90
41876;DHT22;27555;50.808;4.402;2023-07-13T06:27:09;19.30;99.90
41876;DHT22;27555;50.808;4.402;2023-07-13T06:29:34;19.30;99.90
41876;DHT22;27555;50.808;4.402;2023-07-13T06:32:00;19.30;99.90
41876;DHT22;27555;50.808;4.402;2023-07-13T06:34:26;19.20;99.90
41876;DHT22;27555;50.808;4.402;2023-07-13T06:36:51;19.50;99.90
41876;DHT22;27555;50.808;4.402;2023-07-13T06:39:17;19.60;99.90
41876;DHT22;27555;50.808;4.402;2023-07-13T06:41:42;19.50;99.90
41876;DHT22;27555;50.808;4.402;2023-07-13T06:44:08;19.50;99.90
41876;DHT22;27555;50.808;4.402;2023-07-13T06:46:33;19.50;99.90
41876;DHT22;27555;50.808;4.402;2023-07-13T06:48:59;19.70;99.90
41876;DHT22;27555;50.808;4.402;2023-07-13T06:51:25;19.80;99.90
41876;DHT22;27555;50.808;4.402;2023-07-13T06:53:51;19.60;99.90
41876;DHT22;27555;50.808;4.402;2023-07-13T06:56:17;19.70;99.90
41876;DHT22;27555;50.808;4.402;2023-07-13T06:58:42;20.10;99.90
41876;DHT22;27555;50.808;4.402;2023-07-13T07:01:09;20.10;99.90
41876;DHT22;27555;50.808;4.402;2023-07-13T07:03:34;20.30;99.90
41876;DHT22;27555;50.808;4.402;2023-07-13T07:06:22;20.70;99.90
41876;DHT22;27555;50.808;4.402;2023-07-13T07:08:51;20.80;99.90
41876;DHT22;27555;50.808;4.402;2023-07-13T07:11:19;20.60;99.90
41876;DHT22;27555;50.808;4.402;2023-07-13T07:13:45;20.30;99.90
41876;DHT22;27555;50.808;4.402;2023-07-13T07:16:11;20.40;99.90
41876;DHT22;27555;50.808;4.402;2023-07-13T07:18:36;20.50;99.90
41876;DHT22;27555;50.808;4.402;2023-07-13T07:21:03;20.40;99.90
41876;DHT22;27555;50.808;4.402;2023-07-13T07:23:29;20.60;99.90
41876;DHT22;27555;50.808;4.402;2023-07-13T07:25:55;20.60;99.90
41876;DHT22;27555;50.808;4.402;2023-07-13T07:28:21;20.60;99.90
41876;DHT22;27555;50.808;4.402;2023-07-13T07:30:47;21.00;99.90
41876;DHT22;27555;50.808;4.402;2023-07-13T07:33:13;21.50;99.90
41876;DHT22;27555;50.808;4.402;2023-07-13T07:35:39;21.70;99.90
41876;DHT22;27555;50.808;4.402;2023-07-13T07:38:05;21.70;99.90
41876;DHT22;27555;50.808;4.402;2023-07-13T07:40:31;21.90;99.90
41876;DHT22;27555;50.808;4.402;2023-07-13T07:42:57;21.90;99.90
41876;DHT22;27555;50.808;4.402;2023-07-13T07:45:23;22.30;99.80
41876;DHT22;27555;50.808;4.402;2023-07-13T07:47:49;22.30;99.40
41876;DHT22;27555;50.808;4.402;2023-07-13T07:50:14;22.30;99.30
41876;DHT22;27555;50.808;4.402;2023-07-13T07:52:41;22.40;99.50
41876;DHT22;27555;50.808;4.402;2023-07-13T07:55:09;22.60;98.80
41876;DHT22;27555;50.808;4.402;2023-07-13T07:57:35;23.40;98.20
41876;DHT22;27555;50.808;4.402;2023-07-13T08:00:00;24.10;96.70
41876;DHT22;27555;50.808;4.402;2023-07-13T08:02:26;25.20;95.50
41876;DHT22;27555;50.808;4.402;2023-07-13T08:04:52;25.50;94.10
41876;DHT22;27555;50.808;4.402;2023-07-13T08:07:18;25.40;93.80
41876;DHT22;27555;50.808;4.402;2023-07-13T08:09:43;26.20;93.10
41876;DHT22;27555;50.808;4.402;2023-07-13T08:12:09;25.50;93.20
41876;DHT22;27555;50.808;4.402;2023-07-13T08:14:34;25.50;93.20
41876;DHT22;27555;50.808;4.402;2023-07-13T08:17:00;25.50;93.00
41876;DHT22;27555;50.808;4.402;2023-07-13T08:19:27;25.20;93.70
41876;DHT22;27555;50.808;4.402;2023-07-13T08:21:52;26.20;92.70
41876;DHT22;27555;50.808;4.402;2023-07-13T08:24:18;27.00;91.70
41876;DHT22;27555;50.808;4.402;2023-07-13T08:26:46;27.70;91.00
41876;DHT22;27555;50.808;4.402;2023-07-13T08:29:12;27.50;90.60
41876;DHT22;27555;50.808;4.402;2023-07-13T08:31:38;27.00;90.80
41876;DHT22;27555;50.808;4.402;2023-07-13T08:34:03;26.20;91.60
41876;DHT22;27555;50.808;4.402;2023-07-13T08:36:29;26.10;91.40
41876;DHT22;27555;50.808;4.402;2023-07-13T08:38:55;25.60;91.80
41876;DHT22;27555;50.808;4.402;2023-07-13T08:41:21;26.20;91.50
41876;DHT22;27555;50.808;4.402;2023-07-13T08:43:50;25.80;91.60
41876;DHT22;27555;50.808;4.402;2023-07-13T08:46:37;25.30;91.80
41876;DHT22;27555;50.808;4.402;2023-07-13T08:49:08;24.80;92.40
41876;DHT22;27555;50.808;4.402;2023-07-13T08:51:45;24.60;92.50
41876;DHT22;27555;50.808;4.402;2023-07-13T08:54:30;25.70;91.60
41876;DHT22;27555;50.808;4.402;2023-07-13T08:56:57;26.40;91.10
41876;DHT22;27555;50.808;4.402;2023-07-13T08:59:27;27.20;90.70
41876;DHT22;27555;50.808;4.402;2023-07-13T09:05:01;27.90;89.80
41876;DHT22;27555;50.808;4.402;2023-07-13T09:10:27;28.50;88.00
41876;DHT22;27555;50.808;4.402;2023-07-13T09:15:57;28.30;87.70
41876;DHT22;27555;50.808;4.402;2023-07-13T09:18:32;27.90;88.10
41876;DHT22;27555;50.808;4.402;2023-07-13T09:21:03;27.10;89.20
41876;DHT22;27555;50.808;4.402;2023-07-13T09:23:31;27.00;89.90
41876;DHT22;27555;50.808;4.402;2023-07-13T09:26:09;27.50;88.80
41876;DHT22;27555;50.808;4.402;2023-07-13T09:28:42;27.70;88.30
41876;DHT22;27555;50.808;4.402;2023-07-13T09:31:24;27.60;88.30
41876;DHT22;27555;50.808;4.402;2023-07-13T09:33:51;28.40;87.10
41876;DHT22;27555;50.808;4.402;2023-07-13T09:36:27;28.00;86.80
41876;DHT22;27555;50.808;4.402;2023-07-13T09:41:58;26.70;89.50
41876;DHT22;27555;50.808;4.402;2023-07-13T09:44:38;26.00;90.40
41876;DHT22;27555;50.808;4.402;2023-07-13T09:47:16;26.30;90.60
41876;DHT22;27555;50.808;4.402;2023-07-13T09:49:42;28.00;88.60
41876;DHT22;27555;50.808;4.402;2023-07-13T09:52:12;28.20;87.10
41876;DHT22;27555;50.808;4.402;2023-07-13T09:54:39;28.30;86.80
41876;DHT22;27555;50.808;4.402;2023-07-13T09:57:16;28.20;86.70
41876;DHT22;27555;50.808;4.402;2023-07-13T09:59:47;29.10;85.50
41876;DHT22;27555;50.808;4.402;2023-07-13T10:07:24;28.40;85.10
41876;DHT22;27555;50.808;4.402;2023-07-13T10:09:55;27.30;86.90
41876;DHT22;27555;50.808;4.402;2023-07-13T10:12:22;26.80;87.80
41876;DHT22;27555;50.808;4.402;2023-07-13T10:14:54;26.30;88.40
41876;DHT22;27555;50.808;4.402;2023-07-13T10:17:27;26.00;89.00
41876;DHT22;27555;50.808;4.402;2023-07-13T10:20:04;25.50;90.00
41876;DHT22;27555;50.808;4.402;2023-07-13T10:25:13;27.20;87.90
41876;DHT22;27555;50.808;4.402;2023-07-13T10:27:39;28.00;86.20
41876;DHT22;27555;50.808;4.402;2023-07-13T10:30:15;28.80;84.30
41876;DHT22;27555;50.808;4.402;2023-07-13T10:32:43;29.80;83.10
41876;DHT22;27555;50.808;4.402;2023-07-13T10:35:14;30.00;81.20
41876;DHT22;27555;50.808;4.402;2023-07-13T10:37:57;30.20;80.10
41876;DHT22;27555;50.808;4.402;2023-07-13T10:40:30;30.60;80.70
41876;DHT22;27555;50.808;4.402;2023-07-13T10:42:59;31.20;79.20
41876;DHT22;27555;50.808;4.402;2023-07-13T10:45:34;30.70;80.20
41876;DHT22;27555;50.808;4.402;2023-07-13T10:48:01;30.70;80.00
41876;DHT22;27555;50.808;4.402;2023-07-13T10:50:29;29.30;81.10
41876;DHT22;27555;50.808;4.402;2023-07-13T10:53:15;27.20;83.10
41876;DHT22;27555;50.808;4.402;2023-07-13T10:58:21;27.20;85.70
41876;DHT22;27555;50.808;4.402;2023-07-13T11:01:07;28.00;82.60
41876;DHT22;27555;50.808;4.402;2023-07-13T11:04:11;28.40;82.90
41876;DHT22;27555;50.808;4.402;2023-07-13T11:06:38;29.70;81.20
41876;DHT22;27555;50.808;4.402;2023-07-13T11:09:39;30.10;79.60
41876;DHT22;27555;50.808;4.402;2023-07-13T11:22:50;30.00;79.70
41876;DHT22;27555;50.808;4.402;2023-07-13T11:25:36;29.80;79.60
41876;DHT22;27555;50.808;4.402;2023-07-13T11:28:17;29.90;78.90
41876;DHT22;27555;50.808;4.402;2023-07-13T11:30:49;30.20;78.80
41876;DHT22;27555;50.808;4.402;2023-07-13T11:36:12;30.00;78.90
41876;DHT22;27555;50.808;4.402;2023-07-13T11:38:40;30.00;79.20
41876;DHT22;27555;50.808;4.402;2023-07-13T11:41:45;28.90;80.00
41876;DHT22;27555;50.808;4.402;2023-07-13T11:44:18;27.80;81.10
41876;DHT22;27555;50.808;4.402;2023-07-13T11:46:49;26.50;83.90
41876;DHT22;27555;50.808;4.402;2023-07-13T11:49:21;25.90;84.70
41876;DHT22;27555;50.808;4.402;2023-07-13T11:51:47;26.10;85.60
41876;DHT22;27555;50.808;4.402;2023-07-13T11:54:26;25.90;84.40
41876;DHT22;27555;50.808;4.402;2023-07-13T11:56:54;25.80;85.20
41876;DHT22;27555;50.808;4.402;2023-07-13T11:59:20;25.40;85.80
41876;DHT22;27555;50.808;4.402;2023-07-13T12:01:50;25.30;85.90
41876;DHT22;27555;50.808;4.402;2023-07-13T12:04:30;25.10;86.20
41876;DHT22;27555;50.808;4.402;2023-07-13T12:07:07;25.10;86.30
41876;DHT22;27555;50.808;4.402;2023-07-13T12:09:39;25.00;86.60
41876;DHT22;27555;50.808;4.402;2023-07-13T12:12:13;24.90;86.40
41876;DHT22;27555;50.808;4.402;2023-07-13T12:14:39;24.90;86.50
41876;DHT22;27555;50.808;4.402;2023-07-13T12:17:15;25.20;86.80
41876;DHT22;27555;50.808;4.402;2023-07-13T12:19:41;25.40;86.20
41876;DHT22;27555;50.808;4.402;2023-07-13T12:22:09;25.40;85.80
41876;DHT22;27555;50.808;4.402;2023-07-13T12:24:37;24.80;87.10
41876;DHT22;27555;50.808;4.402;2023-07-13T12:27:04;25.00;87.20
41876;DHT22;27555;50.808;4.402;2023-07-13T12:29:32;25.30;86.80
41876;DHT22;27555;50.808;4.402;2023-07-13T12:31:58;25.40;86.20
41876;DHT22;27555;50.808;4.402;2023-07-13T12:34:25;25.20;86.90
41876;DHT22;27555;50.808;4.402;2023-07-13T12:36:54;25.20;85.50
41876;DHT22;27555;50.808;4.402;2023-07-13T12:39:28;24.30;87.70
41876;DHT22;27555;50.808;4.402;2023-07-13T12:42:22;23.80;90.10
41876;DHT22;27555;50.808;4.402;2023-07-13T12:47:26;23.50;91.20
41876;DHT22;27555;50.808;4.402;2023-07-13T12:49:57;23.10;92.00
41876;DHT22;27555;50.808;4.402;2023-07-13T12:52:32;22.40;95.00
41876;DHT22;27555;50.808;4.402;2023-07-13T12:55:27;22.40;96.20
41876;DHT22;27555;50.808;4.402;2023-07-13T12:57:58;21.90;97.70
41876;DHT22;27555;50.808;4.402;2023-07-13T13:00:32;21.90;98.90
41876;DHT22;27555;50.808;4.402;2023-07-13T13:03:03;21.80;99.80
41876;DHT22;27555;50.808;4.402;2023-07-13T13:05:32;21.90;99.80
41876;DHT22;27555;50.808;4.402;2023-07-13T13:07:59;21.90;99.90
41876;DHT22;27555;50.808;4.402;2023-07-13T13:10:25;21.60;99.90
41876;DHT22;27555;50.808;4.402;2023-07-13T13:12:52;22.10;99.90
41876;DHT22;27555;50.808;4.402;2023-07-13T13:15:18;22.70;99.90
41876;DHT22;27555;50.808;4.402;2023-07-13T13:17:44;23.50;97.50
41876;DHT22;27555;50.808;4.402;2023-07-13T13:20:20;23.90;97.30
41876;DHT22;27555;50.808;4.402;2023-07-13T13:22:46;23.50;97.10
41876;DHT22;27555;50.808;4.402;2023-07-13T13:25:12;23.60;96.80
41876;DHT22;27555;50.808;4.402;2023-07-13T13:27:40;23.50;96.70
41876;DHT22;27555;50.808;4.402;2023-07-13T13:30:14;23.60;97.40
41876;DHT22;27555;50.808;4.402;2023-07-13T13:32:42;24.00;96.40
41876;DHT22;27555;50.808;4.402;2023-07-13T13:35:16;24.20;96.20
41876;DHT22;27555;50.808;4.402;2023-07-13T13:37:43;24.70;94.40
41876;DHT22;27555;50.808;4.402;2023-07-13T13:40:17;24.80;94.90
41876;DHT22;27555;50.808;4.402;2023-07-13T13:42:43;24.90;93.50
41876;DHT22;27555;50.808;4.402;2023-07-13T13:45:12;24.90;93.90
41876;DHT22;27555;50.808;4.402;2023-07-13T13:47:39;24.90;94.20
41876;DHT22;27555;50.808;4.402;2023-07-13T13:50:21;25.20;93.00
41876;DHT22;27555;50.808;4.402;2023-07-13T13:52:50;24.80;92.90
41876;DHT22;27555;50.808;4.402;2023-07-13T13:55:19;24.90;92.90
41876;DHT22;27555;50.808;4.402;2023-07-13T13:57:46;24.90;92.60
41876;DHT22;27555;50.808;4.402;2023-07-13T14:00:12;25.00;93.00
41876;DHT22;27555;50.808;4.402;2023-07-13T14:02:44;25.10;92.50
41876;DHT22;27555;50.808;4.402;2023-07-13T14:05:14;25.00;91.80
41876;DHT22;27555;50.808;4.402;2023-07-13T14:07:41;24.90;91.90
41876;DHT22;27555;50.808;4.402;2023-07-13T14:10:15;24.50;92.40
41876;DHT22;27555;50.808;4.402;2023-07-13T14:12:47;24.80;91.80
41876;DHT22;27555;50.808;4.402;2023-07-13T14:17:45;24.30;93.00
41876;DHT22;27555;50.808;4.402;2023-07-13T14:20:12;24.40;92.70
41876;DHT22;27555;50.808;4.402;2023-07-13T14:22:38;24.30;92.50
41876;DHT22;27555;50.808;4.402;2023-07-13T14:25:03;24.10;93.10
41876;DHT22;27555;50.808;4.402;2023-07-13T14:27:29;23.80;95.60
41876;DHT22;27555;50.808;4.402;2023-07-13T14:29:55;24.00;95.30
41876;DHT22;27555;50.808;4.402;2023-07-13T14:32:20;23.80;95.60
41876;DHT22;27555;50.808;4.402;2023-07-13T14:34:46;23.70;95.50
41876;DHT22;27555;50.808;4.402;2023-07-13T14:37:13;23.80;95.40
41876;DHT22;27555;50.808;4.402;2023-07-13T14:39:41;23.60;95.90
41876;DHT22;27555;50.808;4.402;2023-07-13T14:42:09;23.40;95.30
41876;DHT22;27555;50.808;4.402;2023-07-13T14:44:35;23.20;96.20
41876;DHT22;27555;50.808;4.402;2023-07-13T14:47:03;23.20;95.90
41876;DHT22;27555;50.808;4.402;2023-07-13T14:49:35;23.40;95.60
41876;DHT22;27555;50.808;4.402;2023-07-13T14:52:08;23.60;95.10
41876;DHT22;27555;50.808;4.402;2023-07-13T14:54:36;23.80;94.60
41876;DHT22;27555;50.808;4.402;2023-07-13T14:57:15;23.90;93.70
41876;DHT22;27555;50.808;4.402;2023-07-13T14:59:41;23.80;94.20
41876;DHT22;27555;50.808;4.402;2023-07-13T15:02:29;23.70;94.10
41876;DHT22;27555;50.808;4.402;2023-07-13T15:04:56;23.70;94.30
41876;DHT22;27555;50.808;4.402;2023-07-13T15:07:22;23.80;93.80
41876;DHT22;27555;50.808;4.402;2023-07-13T15:09:48;23.90;94.20
41876;DHT22;27555;50.808;4.402;2023-07-13T15:12:16;23.80;94.10
41876;DHT22;27555;50.808;4.402;2023-07-13T15:14:41;24.00;94.00
41876;DHT22;27555;50.808;4.402;2023-07-13T15:17:36;24.10;93.50
41876;DHT22;27555;50.808;4.402;2023-07-13T15:20:29;24.10;94.20
41876;DHT22;27555;50.808;4.402;2023-07-13T15:22:55;24.30;94.00
41876;DHT22;27555;50.808;4.402;2023-07-13T15:25:24;24.60;93.20
41876;DHT22;27555;50.808;4.402;2023-07-13T15:27:52;24.60;93.30
41876;DHT22;27555;50.808;4.402;2023-07-13T15:30:18;24.90;92.70
41876;DHT22;27555;50.808;4.402;2023-07-13T15:32:44;25.00;92.80
41876;DHT22;27555;50.808;4.402;2023-07-13T15:35:21;25.20;92.40
41876;DHT22;27555;50.808;4.402;2023-07-13T15:37:48;25.10;92.10
41876;DHT22;27555;50.808;4.402;2023-07-13T15:40:15;25.00;91.20
41876;DHT22;27555;50.808;4.402;2023-07-13T15:42:42;24.80;91.80
41876;DHT22;27555;50.808;4.402;2023-07-13T15:45:22;24.90;91.50
41876;DHT22;27555;50.808;4.402;2023-07-13T15:47:48;24.80;91.90
41876;DHT22;27555;50.808;4.402;2023-07-13T15:50:21;24.80;91.60
41876;DHT22;27555;50.808;4.402;2023-07-13T15:52:50;24.90;90.40
41876;DHT22;27555;50.808;4.402;2023-07-13T15:55:16;24.80;90.70
41876;DHT22;27555;50.808;4.402;2023-07-13T15:57:48;24.80;90.20
41876;DHT22;27555;50.808;4.402;2023-07-13T16:00:27;24.70;90.20
41876;DHT22;27555;50.808;4.402;2023-07-13T16:02:53;24.80;89.30
41876;DHT22;27555;50.808;4.402;2023-07-13T16:05:21;24.80;89.50
41876;DHT22;27555;50.808;4.402;2023-07-13T16:07:49;24.90;89.00
41876;DHT22;27555;50.808;4.402;2023-07-13T16:10:38;24.80;89.60
41876;DHT22;27555;50.808;4.402;2023-07-13T16:13:15;24.80;90.00
41876;DHT22;27555;50.808;4.402;2023-07-13T16:15:41;25.00;89.70
41876;DHT22;27555;50.808;4.402;2023-07-13T16:18:10;25.00;89.30
41876;DHT22;27555;50.808;4.402;2023-07-13T16:20:37;24.90;89.80
41876;DHT22;27555;50.808;4.402;2023-07-13T16:23:04;25.00;89.10